createdAt,value
2018-11-13T00:00:14.240Z,11.52
2018-11-13T00:01:13.946Z,11.5
2018-11-13T00:02:13.655Z,11.5
2018-11-13T00:03:13.914Z,11.53
2018-11-13T00:04:14.178Z,11.53
2018-11-13T00:05:13.603Z,11.5
2018-11-13T00:06:14.109Z,11.54
2018-11-13T00:07:14.107Z,11.5
2018-11-13T00:08:14.119Z,11.54
2018-11-13T00:09:13.833Z,11.57
2018-11-13T00:10:13.993Z,11.53
2018-11-13T00:11:14.102Z,11.43
2018-11-13T00:12:13.484Z,11.53
2018-11-13T00:13:13.996Z,11.49
2018-11-13T00:14:13.733Z,11.43
2018-11-13T00:15:13.968Z,11.47
2018-11-13T00:16:13.947Z,11.44
2018-11-13T00:17:13.672Z,11.44
2018-11-13T00:18:13.657Z,11.46
2018-11-13T00:19:13.633Z,11.44
2018-11-13T00:20:13.671Z,11.43
2018-11-13T00:21:13.869Z,11.43
2018-11-13T00:22:13.593Z,11.43
2018-11-13T00:23:13.568Z,11.41
2018-11-13T00:24:14.317Z,11.36
2018-11-13T00:25:13.538Z,11.38
2018-11-13T00:26:13.792Z,11.44
2018-11-13T00:27:13.235Z,11.38
2018-11-13T00:28:13.491Z,11.47
2018-11-13T00:29:13.231Z,11.35
2018-11-13T00:30:13.718Z,11.31
2018-11-13T00:31:13.485Z,11.41
2018-11-13T00:32:13.690Z,11.34
2018-11-13T00:33:13.665Z,11.32
2018-11-13T00:34:13.405Z,11.36
2018-11-13T00:35:13.639Z,11.43
2018-11-13T00:36:13.353Z,11.35
2018-11-13T00:37:13.605Z,11.43
2018-11-13T00:38:13.318Z,11.35
2018-11-13T00:39:13.419Z,11.38
2018-11-13T00:40:13.028Z,11.34
2018-11-13T00:41:13.013Z,11.36
2018-11-13T00:42:13.529Z,11.34
2018-11-13T00:43:13.238Z,11.36
2018-11-13T00:44:13.500Z,11.32
2018-11-13T00:45:13.610Z,11.35
2018-11-13T00:46:13.201Z,11.34
2018-11-13T00:47:12.909Z,11.29
2018-11-13T00:48:12.893Z,11.36
2018-11-13T00:49:13.145Z,11.38
2018-11-13T00:50:13.129Z,11.39
2018-11-13T00:51:13.106Z,11.39
2018-11-13T00:52:13.093Z,11.36
2018-11-13T00:53:13.113Z,11.39
2018-11-13T00:54:13.264Z,11.38
2018-11-13T00:55:13.434Z,11.36
2018-11-13T00:56:13.024Z,11.41
2018-11-13T00:57:13.030Z,11.35
2018-11-13T00:58:13.004Z,11.36
2018-11-13T00:59:13.031Z,11.38
2018-11-13T01:00:13.092Z,11.31
2018-11-13T01:01:12.947Z,11.31
2018-11-13T01:02:13.654Z,11.39
2018-11-13T01:03:12.936Z,11.27
2018-11-13T01:04:13.162Z,11.25
2018-11-13T01:05:13.227Z,11.34
2018-11-13T01:06:13.127Z,11.31
2018-11-13T01:07:12.580Z,11.32
2018-11-13T01:08:13.096Z,11.28
2018-11-13T01:09:13.077Z,11.31
2018-11-13T01:10:12.526Z,11.31
2018-11-13T01:11:13.042Z,11.28
2018-11-13T01:12:12.765Z,11.31
2018-11-13T01:13:13.026Z,11.36
2018-11-13T01:14:12.733Z,11.25
2018-11-13T01:15:13.875Z,11.35
2018-11-13T01:16:12.740Z,11.29
2018-11-13T01:17:12.693Z,11.24
2018-11-13T01:18:12.661Z,11.29
2018-11-13T01:19:12.953Z,11.29
2018-11-13T01:20:12.892Z,11.27
2018-11-13T01:21:12.349Z,11.2
2018-11-13T01:22:12.863Z,11.34
2018-11-13T01:23:12.319Z,11.19
2018-11-13T01:24:12.566Z,11.25
2018-11-13T01:25:12.555Z,11.2
2018-11-13T01:26:12.799Z,11.25
2018-11-13T01:27:12.515Z,11.2
2018-11-13T01:28:12.784Z,11.24
2018-11-13T01:29:12.750Z,11.24
2018-11-13T01:30:12.732Z,11.19
2018-11-13T01:31:12.498Z,11.2
2018-11-13T01:32:12.697Z,11.21
2018-11-13T01:33:12.415Z,11.2
2018-11-13T01:34:12.659Z,11.13
2018-11-13T01:35:12.297Z,11.11
2018-11-13T01:36:12.366Z,11.16
2018-11-13T01:37:12.616Z,11.14
2018-11-13T01:38:12.359Z,11.13
2018-11-13T01:39:12.319Z,11.13
2018-11-13T01:40:12.032Z,11.13
2018-11-13T01:41:12.550Z,11.11
2018-11-13T01:42:12.265Z,11.13
2018-11-13T01:43:11.996Z,11.14
2018-11-13T01:44:12.502Z,11.09
2018-11-13T01:45:12.491Z,11.13
2018-11-13T01:46:12.200Z,11.17
2018-11-13T01:47:12.448Z,11.11
2018-11-13T01:48:12.862Z,11.11
2018-11-13T01:49:12.425Z,11.09
2018-11-13T01:50:11.870Z,11.09
2018-11-13T01:51:12.164Z,11.09
2018-11-13T01:52:12.369Z,11.03
2018-11-13T01:53:12.359Z,11.1
2018-11-13T01:54:12.437Z,11.06
2018-11-13T01:55:12.054Z,11.11
2018-11-13T01:56:12.037Z,11.06
2018-11-13T01:57:11.863Z,11.03
2018-11-13T01:58:12.268Z,11.01
2018-11-13T01:59:12.001Z,10.98
2018-11-13T02:00:12.232Z,11.01
2018-11-13T02:01:11.953Z,11.01
2018-11-13T02:02:11.672Z,10.98
2018-11-13T02:03:11.919Z,10.98
2018-11-13T02:04:11.911Z,10.98
2018-11-13T02:05:11.886Z,10.96
2018-11-13T02:06:11.871Z,10.99
2018-11-13T02:07:11.852Z,11.03
2018-11-13T02:08:11.704Z,11.06
2018-11-13T02:09:11.818Z,11.03
2018-11-13T02:10:11.809Z,11.01
2018-11-13T02:11:12.064Z,10.98
2018-11-13T02:12:11.795Z,11.07
2018-11-13T02:13:12.022Z,11.03
2018-11-13T02:14:11.739Z,11.09
2018-11-13T02:15:11.461Z,11.03
2018-11-13T02:16:11.705Z,11.07
2018-11-13T02:17:12.015Z,11.09
2018-11-13T02:18:11.941Z,11.06
2018-11-13T02:19:11.916Z,10.99
2018-11-13T02:20:11.639Z,11.02
2018-11-13T02:21:11.885Z,10.98
2018-11-13T02:22:11.872Z,11.02
2018-11-13T02:23:11.868Z,11.03
2018-11-13T02:24:11.843Z,11.02
2018-11-13T02:25:11.828Z,10.99
2018-11-13T02:26:11.800Z,10.98
2018-11-13T02:27:11.521Z,11.02
2018-11-13T02:28:11.505Z,10.96
2018-11-13T02:29:11.751Z,10.99
2018-11-13T02:30:11.236Z,10.98
2018-11-13T02:31:11.472Z,10.99
2018-11-13T02:32:11.494Z,11.02
2018-11-13T02:33:11.158Z,11.06
2018-11-13T02:34:11.403Z,11.09
2018-11-13T02:35:11.756Z,11.02
2018-11-13T02:36:11.653Z,11.03
2018-11-13T02:37:11.355Z,10.98
2018-11-13T02:38:11.345Z,11.01
2018-11-13T02:39:11.329Z,11.02
2018-11-13T02:40:11.311Z,10.96
2018-11-13T02:41:11.307Z,10.99
2018-11-13T02:42:11.012Z,10.96
2018-11-13T02:43:11.253Z,10.96
2018-11-13T02:44:11.248Z,10.96
2018-11-13T02:45:11.484Z,10.96
2018-11-13T02:46:11.206Z,10.98
2018-11-13T02:47:10.924Z,10.92
2018-11-13T02:48:11.169Z,10.94
2018-11-13T02:49:10.908Z,10.96
2018-11-13T02:50:11.424Z,10.94
2018-11-13T02:51:11.121Z,10.92
2018-11-13T02:52:11.368Z,10.99
2018-11-13T02:53:11.090Z,10.99
2018-11-13T02:54:11.277Z,10.99
2018-11-13T02:55:11.323Z,10.98
2018-11-13T02:56:11.039Z,10.99
2018-11-13T02:57:10.784Z,11.03
2018-11-13T02:58:11.004Z,11.09
2018-11-13T02:59:11.247Z,11.1
2018-11-13T03:00:11.281Z,11.06
2018-11-13T03:01:11.214Z,11.07
2018-11-13T03:02:11.210Z,11.03
2018-11-13T03:03:10.921Z,11.07
2018-11-13T03:04:10.637Z,11.13
2018-11-13T03:05:11.147Z,11.14
2018-11-13T03:06:10.902Z,11.17
2018-11-13T03:07:10.853Z,11.11
2018-11-13T03:08:10.830Z,11.11
2018-11-13T03:09:10.817Z,11.06
2018-11-13T03:10:10.803Z,11.11
2018-11-13T03:11:10.779Z,11.07
2018-11-13T03:12:10.771Z,11.06
2018-11-13T03:13:10.782Z,11.06
2018-11-13T03:14:10.738Z,11.09
2018-11-13T03:15:10.717Z,11.03
2018-11-13T03:16:10.969Z,11.13
2018-11-13T03:17:10.415Z,11.09
2018-11-13T03:18:10.674Z,11.09
2018-11-13T03:19:10.392Z,11.14
2018-11-13T03:20:10.371Z,11.07
2018-11-13T03:21:10.626Z,11.03
2018-11-13T03:22:10.597Z,11.09
2018-11-13T03:23:10.859Z,11.03
2018-11-13T03:24:10.841Z,11.09
2018-11-13T03:25:10.815Z,11.02
2018-11-13T03:26:10.531Z,11.09
2018-11-13T03:27:10.513Z,11.14
2018-11-13T03:28:10.757Z,11.03
2018-11-13T03:29:10.476Z,11.03
2018-11-13T03:30:10.478Z,11.03
2018-11-13T03:31:10.733Z,11.01
2018-11-13T03:32:10.438Z,11.01
2018-11-13T03:33:10.428Z,11.1
2018-11-13T03:34:10.392Z,11.03
2018-11-13T03:35:10.380Z,11.03
2018-11-13T03:36:10.099Z,11.01
2018-11-13T03:37:10.343Z,11.09
2018-11-13T03:38:10.339Z,11.01
2018-11-13T03:39:10.381Z,11.01
2018-11-13T03:40:10.299Z,10.98
2018-11-13T03:41:10.287Z,10.95
2018-11-13T03:42:10.262Z,11.03
2018-11-13T03:43:09.987Z,10.98
2018-11-13T03:44:10.228Z,11.01
2018-11-13T03:45:10.218Z,10.99
2018-11-13T03:46:09.926Z,11.01
2018-11-13T03:47:09.912Z,11.03
2018-11-13T03:48:10.155Z,10.99
2018-11-13T03:49:10.142Z,11.02
2018-11-13T03:50:10.389Z,11.01
2018-11-13T03:51:10.108Z,10.95
2018-11-13T03:52:10.354Z,10.99
2018-11-13T03:53:09.810Z,11.01
2018-11-13T03:54:10.338Z,10.98
2018-11-13T03:55:10.305Z,10.94
2018-11-13T03:56:10.294Z,10.98
2018-11-13T03:57:10.276Z,10.91
2018-11-13T03:58:10.251Z,10.99
2018-11-13T03:59:09.972Z,11.02
2018-11-13T04:00:10.220Z,10.98
2018-11-13T04:01:10.198Z,10.98
2018-11-13T04:02:09.921Z,11.07
2018-11-13T04:03:10.176Z,10.98
2018-11-13T04:04:10.159Z,11.01
2018-11-13T04:05:09.877Z,11.03
2018-11-13T04:06:10.116Z,10.99
2018-11-13T04:07:10.105Z,10.99
2018-11-13T04:08:09.823Z,10.95
2018-11-13T04:09:09.807Z,10.96
2018-11-13T04:10:10.058Z,10.95
2018-11-13T04:11:09.545Z,11.09
2018-11-13T04:12:10.035Z,10.98
2018-11-13T04:13:09.738Z,11.07
2018-11-13T04:14:09.992Z,11.07
2018-11-13T04:15:09.977Z,11.1
2018-11-13T04:16:09.975Z,11.13
2018-11-13T04:17:09.665Z,11.13
2018-11-13T04:18:09.922Z,11.13
2018-11-13T04:19:09.899Z,11.13
2018-11-13T04:20:09.617Z,11.14
2018-11-13T04:21:09.866Z,11.21
2018-11-13T04:22:09.581Z,11.17
2018-11-13T04:23:09.570Z,11.19
2018-11-13T04:24:09.813Z,11.25
2018-11-13T04:25:09.814Z,11.31
2018-11-13T04:26:09.816Z,11.29
2018-11-13T04:27:09.772Z,11.29
2018-11-13T04:28:09.227Z,11.27
2018-11-13T04:29:09.477Z,11.31
2018-11-13T04:30:09.206Z,11.28
2018-11-13T04:31:09.433Z,11.24
2018-11-13T04:32:09.428Z,11.24
2018-11-13T04:33:09.395Z,11.27
2018-11-13T04:34:09.648Z,11.28
2018-11-13T04:35:09.378Z,11.29
2018-11-13T04:36:09.354Z,11.27
2018-11-13T04:37:09.607Z,11.27
2018-11-13T04:38:09.317Z,11.35
2018-11-13T04:39:09.601Z,11.29
2018-11-13T04:40:09.012Z,11.36
2018-11-13T04:41:09.527Z,11.41
2018-11-13T04:42:09.268Z,11.38
2018-11-13T04:43:09.225Z,11.41
2018-11-13T04:44:09.215Z,11.47
2018-11-13T04:45:09.200Z,11.39
2018-11-13T04:46:08.910Z,11.34
2018-11-13T04:47:09.429Z,11.44
2018-11-13T04:48:09.161Z,11.36
2018-11-13T04:49:09.423Z,11.41
2018-11-13T04:50:09.390Z,11.34
2018-11-13T04:51:09.098Z,11.39
2018-11-13T04:52:08.808Z,11.36
2018-11-13T04:53:09.330Z,11.41
2018-11-13T04:54:09.536Z,11.35
2018-11-13T04:55:09.022Z,11.41
2018-11-13T04:56:09.283Z,11.43
2018-11-13T04:57:08.984Z,11.36
2018-11-13T04:58:08.973Z,11.41
2018-11-13T04:59:08.963Z,11.41
2018-11-13T05:00:08.938Z,11.34
2018-11-13T05:01:08.651Z,11.35
2018-11-13T05:02:08.914Z,11.34
2018-11-13T05:03:09.483Z,11.36
2018-11-13T05:04:08.899Z,11.36
2018-11-13T05:05:08.603Z,11.43
2018-11-13T05:06:08.841Z,11.39
2018-11-13T05:07:08.820Z,11.32
2018-11-13T05:08:08.538Z,11.38
2018-11-13T05:09:09.251Z,11.34
2018-11-13T05:10:08.614Z,11.43
2018-11-13T05:11:08.759Z,11.36
2018-11-13T05:12:09.010Z,11.35
2018-11-13T05:13:08.715Z,11.35
2018-11-13T05:14:08.966Z,11.32
2018-11-13T05:15:08.699Z,11.41
2018-11-13T05:16:08.934Z,11.31
2018-11-13T05:17:08.912Z,11.34
2018-11-13T05:18:08.365Z,11.44
2018-11-13T05:19:08.616Z,11.43
2018-11-13T05:20:08.617Z,11.47
2018-11-13T05:21:08.595Z,11.46
2018-11-13T05:22:08.829Z,11.36
2018-11-13T05:23:09.175Z,11.39
2018-11-13T05:24:08.268Z,11.47
2018-11-13T05:25:08.250Z,11.47
2018-11-13T05:26:08.498Z,11.5
2018-11-13T05:27:08.755Z,11.52
2018-11-13T05:28:08.730Z,11.7
2018-11-13T05:29:08.709Z,11.59
2018-11-13T05:30:08.459Z,11.62
2018-11-13T05:31:08.679Z,11.68
2018-11-13T05:32:08.394Z,11.7
2018-11-13T05:33:08.113Z,11.57
2018-11-13T05:34:08.687Z,11.67
2018-11-13T05:35:08.350Z,11.64
2018-11-13T05:36:08.334Z,11.71
2018-11-13T05:37:08.347Z,11.7
2018-11-13T05:38:08.553Z,11.65
2018-11-13T05:39:08.594Z,11.71
2018-11-13T05:40:08.258Z,11.67
2018-11-13T05:41:07.982Z,11.7
2018-11-13T05:42:08.223Z,11.68
2018-11-13T05:43:07.945Z,11.67
2018-11-13T05:44:07.927Z,11.65
2018-11-13T05:45:08.171Z,11.62
2018-11-13T05:46:08.159Z,11.65
2018-11-13T05:47:08.530Z,11.64
2018-11-13T05:48:07.856Z,11.56
2018-11-13T05:49:08.374Z,11.53
2018-11-13T05:50:07.825Z,11.49
2018-11-13T05:51:08.346Z,11.47
2018-11-13T05:52:07.792Z,11.49
2018-11-13T05:53:08.045Z,11.47
2018-11-13T05:54:08.342Z,11.56
2018-11-13T05:55:08.003Z,11.46
2018-11-13T05:56:07.725Z,11.49
2018-11-13T05:57:07.970Z,11.47
2018-11-13T05:58:08.224Z,11.54
2018-11-13T05:59:08.203Z,11.53
2018-11-13T06:00:07.923Z,11.52
2018-11-13T06:01:07.915Z,11.47
2018-11-13T06:02:07.884Z,11.49
2018-11-13T06:03:08.138Z,11.49
2018-11-13T06:04:07.854Z,11.49
2018-11-13T06:05:08.105Z,11.5
2018-11-13T06:06:07.817Z,11.5
2018-11-13T06:07:07.805Z,11.49
2018-11-13T06:08:07.784Z,11.47
2018-11-13T06:09:07.762Z,11.49
2018-11-13T06:10:07.751Z,11.47
2018-11-13T06:11:08.027Z,11.54
2018-11-13T06:12:07.719Z,11.46
2018-11-13T06:13:07.968Z,11.49
2018-11-13T06:14:07.874Z,11.49
2018-11-13T06:15:07.397Z,11.43
2018-11-13T06:16:07.721Z,11.49
2018-11-13T06:17:07.365Z,11.44
2018-11-13T06:18:07.999Z,11.5
2018-11-13T06:19:07.595Z,11.43
2018-11-13T06:20:07.596Z,11.43
2018-11-13T06:21:07.297Z,11.44
2018-11-13T06:22:07.818Z,11.35
2018-11-13T06:23:07.315Z,11.35
2018-11-13T06:24:07.509Z,11.36
2018-11-13T06:25:07.756Z,11.39
2018-11-13T06:26:07.737Z,11.36
2018-11-13T06:27:07.723Z,11.36
2018-11-13T06:28:07.439Z,11.39
2018-11-13T06:29:07.422Z,11.24
2018-11-13T06:30:07.681Z,11.32
2018-11-13T06:31:07.389Z,11.29
2018-11-13T06:32:07.372Z,11.32
2018-11-13T06:33:07.092Z,11.28
2018-11-13T06:34:07.605Z,11.29
2018-11-13T06:35:07.061Z,11.28
2018-11-13T06:36:07.584Z,11.29
2018-11-13T06:37:07.287Z,11.28
2018-11-13T06:38:07.544Z,11.28
2018-11-13T06:39:06.989Z,11.24
2018-11-13T06:40:07.502Z,11.31
2018-11-13T06:41:07.223Z,11.19
2018-11-13T06:42:07.215Z,11.29
2018-11-13T06:43:07.199Z,11.24
2018-11-13T06:44:06.902Z,11.24
2018-11-13T06:45:07.209Z,11.2
2018-11-13T06:46:07.397Z,11.13
2018-11-13T06:47:07.381Z,11.13
2018-11-13T06:48:07.101Z,11.16
2018-11-13T06:49:07.212Z,11.25
2018-11-13T06:50:07.122Z,11.17
2018-11-13T06:51:07.304Z,11.19
2018-11-13T06:52:07.077Z,11.25
2018-11-13T06:53:07.038Z,11.21
2018-11-13T06:54:07.214Z,11.17
2018-11-13T06:55:07.247Z,11.14
2018-11-13T06:56:06.694Z,11.14
2018-11-13T06:57:07.213Z,11.09
2018-11-13T06:58:06.928Z,11.17
2018-11-13T06:59:06.907Z,11.11
2018-11-13T07:00:06.891Z,11.19
2018-11-13T07:01:07.137Z,11.27
2018-11-13T07:02:07.155Z,11.28
2018-11-13T07:03:06.841Z,11.29
2018-11-13T07:04:06.920Z,11.29
2018-11-13T07:05:07.052Z,11.34
2018-11-13T07:06:06.786Z,11.27
2018-11-13T07:07:07.034Z,11.29
2018-11-13T07:08:07.013Z,11.2
2018-11-13T07:09:06.733Z,11.21
2018-11-13T07:10:06.457Z,11.11
2018-11-13T07:11:06.797Z,11.14
2018-11-13T07:12:06.708Z,11.14
2018-11-13T07:13:06.934Z,11.21
2018-11-13T07:14:06.649Z,11.2
2018-11-13T07:15:06.373Z,11.24
2018-11-13T07:16:06.362Z,11.13
2018-11-13T07:17:06.332Z,11.19
2018-11-13T07:18:06.315Z,11.03
2018-11-13T07:19:06.302Z,11.19
2018-11-13T07:20:06.547Z,11.16
2018-11-13T07:21:06.794Z,11.11
2018-11-13T07:22:06.780Z,11.11
2018-11-13T07:23:06.509Z,11.17
2018-11-13T07:24:06.481Z,11.13
2018-11-13T07:25:06.466Z,11.16
2018-11-13T07:26:06.448Z,11.13
2018-11-13T07:27:06.648Z,11.21
2018-11-13T07:28:06.969Z,11.25
2018-11-13T07:29:06.394Z,11.27
2018-11-13T07:30:06.375Z,11.34
2018-11-13T07:31:06.723Z,11.29
2018-11-13T07:32:06.662Z,11.38
2018-11-13T07:33:06.614Z,11.31
2018-11-13T07:34:06.370Z,11.38
2018-11-13T07:35:06.023Z,11.46
2018-11-13T07:36:06.005Z,11.56
2018-11-13T07:37:06.252Z,11.5
2018-11-13T07:38:05.973Z,11.56
2018-11-13T07:39:06.483Z,11.52
2018-11-13T07:40:06.481Z,11.64
2018-11-13T07:41:06.645Z,11.65
2018-11-13T07:42:06.185Z,11.59
2018-11-13T07:43:06.164Z,11.59
2018-11-13T07:44:06.139Z,11.59
2018-11-13T07:45:06.127Z,11.64
2018-11-13T07:46:06.379Z,11.68
2018-11-13T07:47:06.314Z,11.68
2018-11-13T07:48:06.725Z,11.78
2018-11-13T07:49:06.058Z,11.74
2018-11-13T07:50:06.036Z,11.83
2018-11-13T07:51:06.121Z,11.78
2018-11-13T07:52:06.008Z,11.87
2018-11-13T07:53:06.245Z,11.9
2018-11-13T07:54:06.144Z,11.85
2018-11-13T07:55:05.946Z,11.89
2018-11-13T07:56:05.935Z,11.89
2018-11-13T07:57:05.957Z,11.97
2018-11-13T07:58:05.900Z,12.06
2018-11-13T07:59:05.894Z,12.08
2018-11-13T08:00:06.139Z,12.04
2018-11-13T08:01:05.910Z,12.11
2018-11-13T08:02:05.829Z,12.06
2018-11-13T08:03:05.550Z,12.06
2018-11-13T08:04:06.075Z,12.15
2018-11-13T08:05:06.046Z,12.21
2018-11-13T08:06:05.901Z,12.21
2018-11-13T08:07:05.483Z,12.24
2018-11-13T08:08:05.731Z,12.24
2018-11-13T08:09:05.983Z,12.21
2018-11-13T08:10:05.710Z,12.24
2018-11-13T08:11:05.419Z,12.24
2018-11-13T08:12:05.670Z,12.34
2018-11-13T08:13:06.054Z,12.3
2018-11-13T08:14:05.895Z,12.39
2018-11-13T08:15:05.898Z,12.38
2018-11-13T08:16:05.872Z,12.33
2018-11-13T08:17:05.583Z,12.42
2018-11-13T08:18:05.567Z,12.45
2018-11-13T08:19:05.817Z,12.39
2018-11-13T08:20:05.536Z,12.48
2018-11-13T08:21:05.577Z,12.46
2018-11-13T08:22:05.349Z,12.48
2018-11-13T08:23:05.506Z,12.38
2018-11-13T08:24:05.469Z,12.48
2018-11-13T08:25:05.814Z,12.39
2018-11-13T08:26:05.444Z,12.37
2018-11-13T08:27:05.921Z,12.38
2018-11-13T08:28:05.983Z,12.39
2018-11-13T08:29:05.773Z,12.41
2018-11-13T08:30:05.370Z,12.34
2018-11-13T08:31:05.354Z,12.38
2018-11-13T08:32:05.602Z,12.41
2018-11-13T08:33:05.662Z,12.39
2018-11-13T08:34:05.565Z,12.42
2018-11-13T08:35:05.506Z,12.41
2018-11-13T08:36:05.270Z,12.3
2018-11-13T08:37:05.523Z,12.38
2018-11-13T08:38:05.233Z,12.44
2018-11-13T08:39:05.218Z,12.38
2018-11-13T08:40:05.205Z,12.41
2018-11-13T08:41:05.186Z,12.41
2018-11-13T08:42:05.433Z,12.44
2018-11-13T08:43:04.896Z,12.34
2018-11-13T08:44:04.887Z,12.42
2018-11-13T08:45:05.121Z,12.52
2018-11-13T08:46:05.379Z,12.46
2018-11-13T08:47:05.094Z,12.45
2018-11-13T08:48:05.341Z,12.51
2018-11-13T08:49:05.055Z,12.52
2018-11-13T08:50:05.315Z,12.49
2018-11-13T08:51:05.023Z,12.49
2018-11-13T08:52:05.263Z,12.64
2018-11-13T08:53:04.729Z,12.69
2018-11-13T08:54:05.435Z,12.78
2018-11-13T08:55:05.047Z,12.82
2018-11-13T08:56:04.940Z,12.77
2018-11-13T08:57:04.928Z,12.79
2018-11-13T08:58:04.907Z,12.77
2018-11-13T08:59:05.151Z,12.75
2018-11-13T09:00:05.151Z,12.78
2018-11-13T09:01:05.128Z,12.77
2018-11-13T09:02:05.119Z,12.77
2018-11-13T09:03:05.097Z,12.77
2018-11-13T09:04:04.812Z,12.79
2018-11-13T09:05:04.647Z,12.79
2018-11-13T09:06:05.059Z,12.79
2018-11-13T09:07:05.034Z,12.77
2018-11-13T09:08:04.762Z,12.79
2018-11-13T09:09:05.001Z,12.79
2018-11-13T09:10:04.459Z,12.78
2018-11-13T09:11:04.700Z,12.77
2018-11-13T09:12:04.995Z,12.7
2018-11-13T09:13:04.404Z,12.66
2018-11-13T09:14:04.653Z,12.77
2018-11-13T09:15:04.908Z,12.7
2018-11-13T09:16:04.623Z,12.74
2018-11-13T09:17:04.929Z,12.7
2018-11-13T09:18:04.696Z,12.74
2018-11-13T09:19:05.332Z,12.69
2018-11-13T09:20:04.845Z,12.69
2018-11-13T09:21:04.538Z,12.66
2018-11-13T09:22:04.859Z,12.67
2018-11-13T09:23:04.260Z,12.67
2018-11-13T09:24:04.497Z,12.67
2018-11-13T09:25:04.737Z,12.67
2018-11-13T09:26:04.199Z,12.66
2018-11-13T09:27:04.178Z,12.51
2018-11-13T09:28:04.432Z,12.62
2018-11-13T09:29:04.432Z,12.6
2018-11-13T09:30:04.545Z,12.57
2018-11-13T09:31:04.818Z,12.63
2018-11-13T09:32:04.637Z,12.6
2018-11-13T09:33:04.813Z,12.66
2018-11-13T09:34:04.072Z,12.63
2018-11-13T09:35:04.334Z,12.64
2018-11-13T09:36:04.037Z,12.59
2018-11-13T09:37:04.343Z,12.64
2018-11-13T09:38:04.271Z,12.66
2018-11-13T09:39:04.518Z,12.66
2018-11-13T09:40:03.976Z,12.67
2018-11-13T09:41:04.484Z,12.69
2018-11-13T09:42:04.469Z,12.7
2018-11-13T09:43:03.924Z,12.74
2018-11-13T09:44:04.172Z,12.79
2018-11-13T09:45:04.362Z,12.78
2018-11-13T09:46:04.383Z,12.78
2018-11-13T09:47:04.442Z,12.84
2018-11-13T09:48:04.375Z,12.89
2018-11-13T09:49:04.092Z,12.92
2018-11-13T09:50:04.348Z,12.93
2018-11-13T09:51:04.324Z,12.92
2018-11-13T09:52:04.305Z,12.96
2018-11-13T09:53:04.355Z,12.99
2018-11-13T09:54:04.012Z,12.96
2018-11-13T09:55:03.995Z,12.99
2018-11-13T09:56:03.980Z,13.02
2018-11-13T09:57:03.965Z,12.97
2018-11-13T09:58:03.684Z,12.99
2018-11-13T09:59:04.106Z,13
2018-11-13T10:00:04.686Z,12.99
2018-11-13T10:01:03.821Z,12.99
2018-11-13T10:02:05.008Z,12.97
2018-11-13T10:03:06.872Z,13.02
2018-11-13T10:04:04.160Z,13.03
2018-11-13T10:05:06.252Z,13.04
2018-11-13T10:06:04.387Z,13.04
2018-11-13T10:07:03.922Z,12.97
2018-11-13T10:08:03.847Z,13
2018-11-13T10:09:03.778Z,13
2018-11-13T10:10:03.841Z,13.11
2018-11-13T10:11:03.482Z,13.07
2018-11-13T10:12:03.734Z,13.11
2018-11-13T10:13:03.715Z,13.12
2018-11-13T10:14:03.437Z,13.21
2018-11-13T10:15:03.956Z,13.21
2018-11-13T10:16:03.936Z,13.32
2018-11-13T10:17:03.962Z,13.56
2018-11-13T10:18:04.709Z,13.61
2018-11-13T10:19:03.623Z,13.88
2018-11-13T10:20:03.881Z,14.06
2018-11-13T10:21:03.341Z,14.38
2018-11-13T10:22:03.850Z,14.88
2018-11-13T10:23:03.860Z,15.13
2018-11-13T10:24:03.556Z,15.05
2018-11-13T10:25:03.542Z,15.12
2018-11-13T10:26:03.525Z,15.11
2018-11-13T10:27:03.844Z,15.21
2018-11-13T10:28:03.525Z,15.35
2018-11-13T10:29:03.492Z,15.21
2018-11-13T10:30:03.530Z,15.03
2018-11-13T10:31:03.449Z,15.08
2018-11-13T10:32:03.175Z,15.19
2018-11-13T10:33:03.427Z,15.06
2018-11-13T10:34:03.435Z,15.02
2018-11-13T10:35:03.398Z,15.11
2018-11-13T10:36:03.384Z,14.99
2018-11-13T10:37:03.372Z,14.95
2018-11-13T10:38:03.097Z,15.02
2018-11-13T10:39:03.091Z,15.15
2018-11-13T10:40:03.775Z,15.05
2018-11-13T10:41:03.552Z,14.9
2018-11-13T10:42:03.585Z,14.6
2018-11-13T10:43:03.570Z,14.43
2018-11-13T10:44:03.591Z,14.32
2018-11-13T10:45:03.281Z,14.37
2018-11-13T10:46:03.528Z,14.38
2018-11-13T10:47:03.278Z,14.35
2018-11-13T10:48:03.253Z,14.29
2018-11-13T10:49:03.308Z,14.14
2018-11-13T10:50:03.524Z,14.27
2018-11-13T10:51:03.195Z,14.29
2018-11-13T10:52:03.183Z,14.43
2018-11-13T10:53:03.176Z,14.52
2018-11-13T10:54:03.355Z,14.74
2018-11-13T10:55:03.414Z,14.8
2018-11-13T10:56:03.131Z,14.74
2018-11-13T10:57:03.124Z,14.57
2018-11-13T10:58:03.377Z,14.46
2018-11-13T10:59:03.092Z,14.42
2018-11-13T11:00:03.348Z,14.35
2018-11-13T11:01:03.340Z,14.16
2018-11-13T11:02:02.788Z,14.27
2018-11-13T11:03:03.340Z,14.21
2018-11-13T11:04:03.038Z,14.13
2018-11-13T11:05:02.744Z,14.01
2018-11-13T11:06:03.264Z,13.98
2018-11-13T11:07:03.246Z,13.92
2018-11-13T11:08:02.977Z,13.84
2018-11-13T11:09:02.955Z,13.83
2018-11-13T11:10:02.681Z,13.79
2018-11-13T11:11:02.926Z,13.83
2018-11-13T11:12:02.653Z,13.84
2018-11-13T11:13:03.171Z,13.62
2018-11-13T11:14:03.533Z,13.44
2018-11-13T11:15:02.876Z,13.09
2018-11-13T11:16:03.121Z,12.93
2018-11-13T11:17:02.588Z,12.67
2018-11-13T11:18:02.600Z,12.49
2018-11-13T11:19:03.298Z,12.52
2018-11-13T11:20:02.796Z,12.39
2018-11-13T11:21:03.067Z,12.48
2018-11-13T11:22:02.781Z,12.39
2018-11-13T11:23:02.897Z,12.39
2018-11-13T11:24:02.926Z,12.33
2018-11-13T11:25:03.086Z,12.38
2018-11-13T11:26:02.763Z,12.34
2018-11-13T11:27:02.421Z,12.46
2018-11-13T11:28:02.785Z,12.42
2018-11-13T11:29:02.392Z,12.48
2018-11-13T11:30:02.648Z,12.48
2018-11-13T11:31:03.124Z,12.44
2018-11-13T11:32:02.869Z,12.48
2018-11-13T11:33:02.590Z,12.49
2018-11-13T11:34:02.324Z,12.54
2018-11-13T11:35:02.558Z,12.56
2018-11-13T11:36:02.285Z,12.49
2018-11-13T11:37:02.829Z,12.48
2018-11-13T11:38:02.512Z,12.34
2018-11-13T11:39:02.377Z,12.24
2018-11-13T11:40:02.760Z,12.09
2018-11-13T11:41:02.751Z,12.02
2018-11-13T11:42:02.448Z,11.87
2018-11-13T11:43:02.436Z,11.93
2018-11-13T11:44:02.423Z,11.87
2018-11-13T11:45:02.402Z,11.86
2018-11-13T11:46:02.380Z,11.93
2018-11-13T11:47:02.644Z,11.85
2018-11-13T11:48:02.347Z,11.82
2018-11-13T11:49:02.349Z,11.78
2018-11-13T11:50:02.305Z,11.75
2018-11-13T11:51:02.570Z,11.77
2018-11-13T11:52:02.546Z,11.67
2018-11-13T11:53:02.529Z,11.64
2018-11-13T11:54:02.086Z,11.7
2018-11-13T11:55:02.225Z,11.7
2018-11-13T11:56:02.209Z,11.67
2018-11-13T11:57:02.490Z,11.59
2018-11-13T11:58:01.960Z,11.62
2018-11-13T11:59:02.461Z,11.52
2018-11-13T12:00:02.408Z,11.5
2018-11-13T12:01:02.397Z,11.41
2018-11-13T12:02:02.459Z,11.38
2018-11-13T12:03:02.089Z,11.35
2018-11-13T12:04:02.070Z,11.32
2018-11-13T12:05:02.320Z,11.29
2018-11-13T12:06:02.036Z,11.38
2018-11-13T12:07:02.296Z,11.32
2018-11-13T12:08:02.302Z,11.32
2018-11-13T12:09:01.991Z,11.32
2018-11-13T12:10:02.409Z,11.39
2018-11-13T12:11:02.007Z,11.34
2018-11-13T12:12:02.212Z,11.28
2018-11-13T12:13:02.183Z,11.28
2018-11-13T12:14:01.904Z,11.35
2018-11-13T12:15:01.942Z,11.34
2018-11-13T12:16:01.883Z,11.35
2018-11-13T12:17:01.849Z,11.43
2018-11-13T12:18:02.173Z,11.64
2018-11-13T12:19:02.482Z,12.21
2018-11-13T12:20:01.813Z,12.45
2018-11-13T12:21:01.790Z,12.45
2018-11-13T12:22:02.032Z,12.29
2018-11-13T12:23:01.799Z,12.24
2018-11-13T12:24:01.740Z,12.19
2018-11-13T12:25:01.981Z,12.09
2018-11-13T12:26:01.894Z,12.54
2018-11-13T12:27:01.731Z,13.11
2018-11-13T12:28:01.683Z,13.37
2018-11-13T12:29:01.917Z,13.67
2018-11-13T12:30:01.901Z,13.8
2018-11-13T12:31:01.889Z,14.31
2018-11-13T12:32:01.618Z,14.35
2018-11-13T12:33:01.598Z,14.31
2018-11-13T12:34:01.586Z,14.34
2018-11-13T12:35:01.352Z,14.43
2018-11-13T12:36:01.555Z,14.52
2018-11-13T12:37:01.555Z,14.84
2018-11-13T12:38:01.798Z,15.11
2018-11-13T12:39:01.527Z,15.03
2018-11-13T12:40:01.760Z,14.52
2018-11-13T12:41:01.834Z,14.47
2018-11-13T12:42:01.776Z,13.99
2018-11-13T12:43:01.738Z,14.16
2018-11-13T12:44:01.457Z,14.56
2018-11-13T12:45:01.706Z,14.78
2018-11-13T12:46:01.694Z,14.42
2018-11-13T12:47:01.527Z,14.21
2018-11-13T12:48:01.663Z,13.96
2018-11-13T12:49:01.603Z,13.95
2018-11-13T12:50:01.382Z,13.71
2018-11-13T12:51:01.149Z,13.58
2018-11-13T12:52:01.355Z,13.73
2018-11-13T12:53:01.479Z,13.61
2018-11-13T12:54:03.214Z,13.51